sensor_id;sensor_type;location;lat;lon;timestamp;P1;durP1;ratioP1;P2;durP2;ratioP2
40150;SDS011;25866;52.420;10.640;2022-07-05T00:01:09;2.78;;;1.27;;
40150;SDS011;25866;52.420;10.640;2022-07-05T00:03:36;5.78;;;1.58;;
40150;SDS011;25866;52.420;10.640;2022-07-05T00:06:02;5.60;;;1.30;;
40150;SDS011;25866;52.420;10.640;2022-07-05T00:08:28;4.40;;;1.67;;
40150;SDS011;25866;52.420;10.640;2022-07-05T00:10:54;3.05;;;1.05;;
40150;SDS011;25866;52.420;10.640;2022-07-05T00:13:19;2.97;;;1.17;;
40150;SDS011;25866;52.420;10.640;2022-07-05T00:15:45;4.53;;;1.20;;
40150;SDS011;25866;52.420;10.640;2022-07-05T00:18:11;3.08;;;1.30;;
40150;SDS011;25866;52.420;10.640;2022-07-05T00:20:37;3.65;;;1.60;;
40150;SDS011;25866;52.420;10.640;2022-07-05T00:23:06;1.58;;;1.17;;
40150;SDS011;25866;52.420;10.640;2022-07-05T00:25:31;7.80;;;1.75;;
40150;SDS011;25866;52.420;10.640;2022-07-05T00:27:57;4.03;;;1.40;;
40150;SDS011;25866;52.420;10.640;2022-07-05T00:30:24;3.83;;;1.10;;
40150;SDS011;25866;52.420;10.640;2022-07-05T00:32:50;3.08;;;1.10;;
40150;SDS011;25866;52.420;10.640;2022-07-05T00:35:16;3.03;;;1.23;;
40150;SDS011;25866;52.420;10.640;2022-07-05T00:37:42;4.07;;;1.33;;
40150;SDS011;25866;52.420;10.640;2022-07-05T00:40:08;5.00;;;1.60;;
40150;SDS011;25866;52.420;10.640;2022-07-05T00:42:34;3.78;;;1.73;;
40150;SDS011;25866;52.420;10.640;2022-07-05T00:45:02;2.30;;;1.10;;
40150;SDS011;25866;52.420;10.640;2022-07-05T00:47:29;4.13;;;1.15;;
40150;SDS011;25866;52.420;10.640;2022-07-05T00:49:54;3.33;;;1.40;;
40150;SDS011;25866;52.420;10.640;2022-07-05T00:52:20;5.53;;;1.50;;
40150;SDS011;25866;52.420;10.640;2022-07-05T00:54:47;3.38;;;1.40;;
40150;SDS011;25866;52.420;10.640;2022-07-05T00:57:13;4.32;;;1.50;;
40150;SDS011;25866;52.420;10.640;2022-07-05T00:59:40;3.72;;;1.52;;
40150;SDS011;25866;52.420;10.640;2022-07-05T01:02:06;4.28;;;1.30;;
40150;SDS011;25866;52.420;10.640;2022-07-05T01:04:31;4.53;;;1.60;;
40150;SDS011;25866;52.420;10.640;2022-07-05T01:06:57;4.05;;;1.42;;
40150;SDS011;25866;52.420;10.640;2022-07-05T01:09:24;4.80;;;1.65;;
40150;SDS011;25866;52.420;10.640;2022-07-05T01:11:50;2.08;;;1.45;;
40150;SDS011;25866;52.420;10.640;2022-07-05T01:14:17;5.05;;;1.35;;
40150;SDS011;25866;52.420;10.640;2022-07-05T01:16:45;3.13;;;1.20;;
40150;SDS011;25866;52.420;10.640;2022-07-05T01:19:11;2.70;;;1.35;;
40150;SDS011;25866;52.420;10.640;2022-07-05T01:21:41;3.30;;;1.48;;
40150;SDS011;25866;52.420;10.640;2022-07-05T01:24:09;2.83;;;1.42;;
40150;SDS011;25866;52.420;10.640;2022-07-05T01:26:36;5.05;;;1.83;;
40150;SDS011;25866;52.420;10.640;2022-07-05T01:29:03;4.63;;;1.70;;
40150;SDS011;25866;52.420;10.640;2022-07-05T01:31:30;5.03;;;1.65;;
40150;SDS011;25866;52.420;10.640;2022-07-05T01:33:58;2.28;;;1.50;;
40150;SDS011;25866;52.420;10.640;2022-07-05T01:36:24;5.28;;;1.70;;
40150;SDS011;25866;52.420;10.640;2022-07-05T01:38:51;5.35;;;1.80;;
40150;SDS011;25866;52.420;10.640;2022-07-05T01:41:16;4.13;;;1.42;;
40150;SDS011;25866;52.420;10.640;2022-07-05T01:43:43;3.50;;;1.90;;
40150;SDS011;25866;52.420;10.640;2022-07-05T01:46:10;3.08;;;1.77;;
40150;SDS011;25866;52.420;10.640;2022-07-05T01:48:37;5.68;;;1.77;;
40150;SDS011;25866;52.420;10.640;2022-07-05T01:51:06;5.50;;;2.13;;
40150;SDS011;25866;52.420;10.640;2022-07-05T01:53:39;3.67;;;1.63;;
40150;SDS011;25866;52.420;10.640;2022-07-05T01:56:06;6.70;;;1.83;;
40150;SDS011;25866;52.420;10.640;2022-07-05T01:58:31;7.05;;;1.88;;
40150;SDS011;25866;52.420;10.640;2022-07-05T02:00:58;3.85;;;1.52;;
40150;SDS011;25866;52.420;10.640;2022-07-05T02:03:24;4.38;;;1.65;;
40150;SDS011;25866;52.420;10.640;2022-07-05T02:05:51;4.30;;;1.75;;
40150;SDS011;25866;52.420;10.640;2022-07-05T02:08:18;5.60;;;1.90;;
40150;SDS011;25866;52.420;10.640;2022-07-05T02:10:44;4.07;;;1.38;;
40150;SDS011;25866;52.420;10.640;2022-07-05T02:13:10;5.32;;;1.90;;
40150;SDS011;25866;52.420;10.640;2022-07-05T02:15:39;2.60;;;1.40;;
40150;SDS011;25866;52.420;10.640;2022-07-05T02:18:07;4.10;;;1.30;;
40150;SDS011;25866;52.420;10.640;2022-07-05T02:20:33;2.25;;;1.33;;
40150;SDS011;25866;52.420;10.640;2022-07-05T02:22:59;2.75;;;1.65;;
40150;SDS011;25866;52.420;10.640;2022-07-05T02:27:55;4.55;;;1.63;;
40150;SDS011;25866;52.420;10.640;2022-07-05T02:30:21;4.55;;;1.60;;
40150;SDS011;25866;52.420;10.640;2022-07-05T02:32:47;3.60;;;1.60;;
40150;SDS011;25866;52.420;10.640;2022-07-05T02:35:13;4.50;;;1.92;;
40150;SDS011;25866;52.420;10.640;2022-07-05T02:37:39;3.33;;;1.70;;
40150;SDS011;25866;52.420;10.640;2022-07-05T02:40:05;3.25;;;1.67;;
40150;SDS011;25866;52.420;10.640;2022-07-05T02:42:37;2.55;;;1.30;;
40150;SDS011;25866;52.420;10.640;2022-07-05T02:45:04;3.30;;;1.42;;
40150;SDS011;25866;52.420;10.640;2022-07-05T02:47:31;7.75;;;1.80;;
40150;SDS011;25866;52.420;10.640;2022-07-05T02:49:58;6.90;;;1.30;;
40150;SDS011;25866;52.420;10.640;2022-07-05T02:52:24;4.32;;;1.40;;
40150;SDS011;25866;52.420;10.640;2022-07-05T02:54:50;2.03;;;1.50;;
40150;SDS011;25866;52.420;10.640;2022-07-05T02:57:16;3.88;;;1.65;;
40150;SDS011;25866;52.420;10.640;2022-07-05T02:59:41;3.17;;;1.80;;
40150;SDS011;25866;52.420;10.640;2022-07-05T03:02:07;3.30;;;1.75;;
40150;SDS011;25866;52.420;10.640;2022-07-05T03:04:33;4.43;;;1.50;;
40150;SDS011;25866;52.420;10.640;2022-07-05T03:06:59;2.67;;;1.55;;
40150;SDS011;25866;52.420;10.640;2022-07-05T03:09:24;5.78;;;1.77;;
40150;SDS011;25866;52.420;10.640;2022-07-05T03:11:50;5.00;;;1.60;;
40150;SDS011;25866;52.420;10.640;2022-07-05T03:14:16;3.92;;;1.50;;
40150;SDS011;25866;52.420;10.640;2022-07-05T03:16:41;3.85;;;1.60;;
40150;SDS011;25866;52.420;10.640;2022-07-05T03:19:09;3.42;;;1.83;;
40150;SDS011;25866;52.420;10.640;2022-07-05T03:21:37;3.05;;;1.55;;
40150;SDS011;25866;52.420;10.640;2022-07-05T03:24:03;3.50;;;1.58;;
40150;SDS011;25866;52.420;10.640;2022-07-05T03:26:29;2.75;;;1.60;;
40150;SDS011;25866;52.420;10.640;2022-07-05T03:28:54;5.43;;;1.63;;
40150;SDS011;25866;52.420;10.640;2022-07-05T03:31:20;7.75;;;1.70;;
40150;SDS011;25866;52.420;10.640;2022-07-05T03:33:46;2.67;;;1.60;;
40150;SDS011;25866;52.420;10.640;2022-07-05T03:36:11;5.80;;;2.08;;
40150;SDS011;25866;52.420;10.640;2022-07-05T03:38:37;3.63;;;1.75;;
40150;SDS011;25866;52.420;10.640;2022-07-05T03:41:03;3.42;;;1.58;;
40150;SDS011;25866;52.420;10.640;2022-07-05T03:43:28;2.53;;;1.60;;
40150;SDS011;25866;52.420;10.640;2022-07-05T03:45:54;5.88;;;1.75;;
40150;SDS011;25866;52.420;10.640;2022-07-05T03:48:20;5.07;;;1.80;;
40150;SDS011;25866;52.420;10.640;2022-07-05T03:50:46;4.35;;;1.48;;
40150;SDS011;25866;52.420;10.640;2022-07-05T03:53:12;2.10;;;1.42;;
40150;SDS011;25866;52.420;10.640;2022-07-05T03:55:38;2.85;;;1.52;;
40150;SDS011;25866;52.420;10.640;2022-07-05T03:58:03;3.55;;;1.67;;
40150;SDS011;25866;52.420;10.640;2022-07-05T04:00:29;4.10;;;1.50;;
40150;SDS011;25866;52.420;10.640;2022-07-05T04:02:55;2.58;;;1.70;;
40150;SDS011;25866;52.420;10.640;2022-07-05T04:05:22;4.13;;;1.65;;
40150;SDS011;25866;52.420;10.640;2022-07-05T04:07:51;4.95;;;1.85;;
40150;SDS011;25866;52.420;10.640;2022-07-05T04:10:19;3.40;;;1.60;;
40150;SDS011;25866;52.420;10.640;2022-07-05T04:12:45;3.58;;;1.70;;
40150;SDS011;25866;52.420;10.640;2022-07-05T04:15:14;3.13;;;1.80;;
40150;SDS011;25866;52.420;10.640;2022-07-05T04:17:46;4.07;;;1.80;;
40150;SDS011;25866;52.420;10.640;2022-07-05T04:20:20;4.60;;;1.83;;
40150;SDS011;25866;52.420;10.640;2022-07-05T04:22:47;2.40;;;1.60;;
40150;SDS011;25866;52.420;10.640;2022-07-05T04:25:15;5.68;;;1.80;;
40150;SDS011;25866;52.420;10.640;2022-07-05T04:27:47;4.63;;;2.00;;
40150;SDS011;25866;52.420;10.640;2022-07-05T04:30:15;5.10;;;1.90;;
40150;SDS011;25866;52.420;10.640;2022-07-05T04:32:42;2.50;;;1.63;;
40150;SDS011;25866;52.420;10.640;2022-07-05T04:35:08;4.93;;;2.03;;
40150;SDS011;25866;52.420;10.640;2022-07-05T04:37:34;3.63;;;1.77;;
40150;SDS011;25866;52.420;10.640;2022-07-05T04:40:00;3.00;;;1.88;;
40150;SDS011;25866;52.420;10.640;2022-07-05T04:42:26;2.95;;;1.85;;
40150;SDS011;25866;52.420;10.640;2022-07-05T04:44:51;2.95;;;2.17;;
40150;SDS011;25866;52.420;10.640;2022-07-05T04:47:17;2.25;;;1.95;;
40150;SDS011;25866;52.420;10.640;2022-07-05T04:49:43;2.33;;;1.85;;
40150;SDS011;25866;52.420;10.640;2022-07-05T04:52:08;4.28;;;1.70;;
40150;SDS011;25866;52.420;10.640;2022-07-05T04:54:35;4.00;;;1.65;;
40150;SDS011;25866;52.420;10.640;2022-07-05T04:57:02;4.03;;;2.20;;
40150;SDS011;25866;52.420;10.640;2022-07-05T04:59:28;4.63;;;1.80;;
40150;SDS011;25866;52.420;10.640;2022-07-05T05:01:54;5.10;;;2.17;;
40150;SDS011;25866;52.420;10.640;2022-07-05T05:04:20;4.30;;;2.05;;
40150;SDS011;25866;52.420;10.640;2022-07-05T05:06:47;7.00;;;2.30;;
40150;SDS011;25866;52.420;10.640;2022-07-05T05:09:13;10.27;;;2.30;;
40150;SDS011;25866;52.420;10.640;2022-07-05T05:11:38;3.53;;;2.17;;
40150;SDS011;25866;52.420;10.640;2022-07-05T05:14:04;4.72;;;2.50;;
40150;SDS011;25866;52.420;10.640;2022-07-05T05:16:32;4.85;;;2.22;;
40150;SDS011;25866;52.420;10.640;2022-07-05T05:18:57;6.88;;;2.63;;
40150;SDS011;25866;52.420;10.640;2022-07-05T05:21:23;4.97;;;1.83;;
40150;SDS011;25866;52.420;10.640;2022-07-05T05:23:49;5.47;;;2.50;;
40150;SDS011;25866;52.420;10.640;2022-07-05T05:26:14;6.68;;;2.58;;
40150;SDS011;25866;52.420;10.640;2022-07-05T05:28:40;4.78;;;2.20;;
40150;SDS011;25866;52.420;10.640;2022-07-05T05:31:06;7.82;;;2.38;;
40150;SDS011;25866;52.420;10.640;2022-07-05T05:33:32;5.88;;;2.10;;
40150;SDS011;25866;52.420;10.640;2022-07-05T05:36:00;3.20;;;1.95;;
40150;SDS011;25866;52.420;10.640;2022-07-05T05:38:26;3.28;;;1.90;;
40150;SDS011;25866;52.420;10.640;2022-07-05T05:40:52;2.97;;;2.13;;
40150;SDS011;25866;52.420;10.640;2022-07-05T05:43:18;2.70;;;2.15;;
40150;SDS011;25866;52.420;10.640;2022-07-05T05:48:12;6.47;;;2.60;;
40150;SDS011;25866;52.420;10.640;2022-07-05T05:50:38;6.85;;;2.53;;
40150;SDS011;25866;52.420;10.640;2022-07-05T05:53:04;5.80;;;2.28;;
40150;SDS011;25866;52.420;10.640;2022-07-05T05:55:30;3.72;;;2.20;;
40150;SDS011;25866;52.420;10.640;2022-07-05T05:57:56;3.10;;;2.20;;
40150;SDS011;25866;52.420;10.640;2022-07-05T06:00:35;5.80;;;2.35;;
40150;SDS011;25866;52.420;10.640;2022-07-05T06:03:00;4.90;;;1.85;;
40150;SDS011;25866;52.420;10.640;2022-07-05T06:05:26;3.45;;;1.95;;
40150;SDS011;25866;52.420;10.640;2022-07-05T06:07:54;4.35;;;1.95;;
40150;SDS011;25866;52.420;10.640;2022-07-05T06:10:22;6.05;;;1.92;;
40150;SDS011;25866;52.420;10.640;2022-07-05T06:12:49;7.13;;;2.00;;
40150;SDS011;25866;52.420;10.640;2022-07-05T06:15:16;3.97;;;1.70;;
40150;SDS011;25866;52.420;10.640;2022-07-05T06:17:42;4.45;;;1.70;;
40150;SDS011;25866;52.420;10.640;2022-07-05T06:20:09;4.28;;;1.67;;
40150;SDS011;25866;52.420;10.640;2022-07-05T06:22:38;4.75;;;1.90;;
40150;SDS011;25866;52.420;10.640;2022-07-05T06:25:04;6.05;;;1.75;;
40150;SDS011;25866;52.420;10.640;2022-07-05T06:27:30;5.35;;;2.30;;
40150;SDS011;25866;52.420;10.640;2022-07-05T06:29:56;5.97;;;2.05;;
40150;SDS011;25866;52.420;10.640;2022-07-05T06:32:23;8.10;;;2.20;;
40150;SDS011;25866;52.420;10.640;2022-07-05T06:34:49;1.77;;;1.27;;
40150;SDS011;25866;52.420;10.640;2022-07-05T06:37:15;4.18;;;2.35;;
40150;SDS011;25866;52.420;10.640;2022-07-05T06:39:40;3.25;;;1.60;;
40150;SDS011;25866;52.420;10.640;2022-07-05T06:42:06;2.70;;;1.50;;
40150;SDS011;25866;52.420;10.640;2022-07-05T06:44:32;4.95;;;1.95;;
40150;SDS011;25866;52.420;10.640;2022-07-05T06:46:58;2.72;;;1.50;;
40150;SDS011;25866;52.420;10.640;2022-07-05T06:49:24;4.10;;;1.45;;
40150;SDS011;25866;52.420;10.640;2022-07-05T06:51:49;12.82;;;1.67;;
40150;SDS011;25866;52.420;10.640;2022-07-05T06:54:15;2.75;;;1.20;;
40150;SDS011;25866;52.420;10.640;2022-07-05T06:56:41;3.75;;;1.40;;
40150;SDS011;25866;52.420;10.640;2022-07-05T06:59:06;6.97;;;1.40;;
40150;SDS011;25866;52.420;10.640;2022-07-05T07:01:32;3.83;;;1.40;;
40150;SDS011;25866;52.420;10.640;2022-07-05T07:03:58;2.60;;;1.30;;
40150;SDS011;25866;52.420;10.640;2022-07-05T07:06:23;4.10;;;1.25;;
40150;SDS011;25866;52.420;10.640;2022-07-05T07:08:49;3.03;;;1.38;;
40150;SDS011;25866;52.420;10.640;2022-07-05T07:11:34;3.92;;;1.42;;
40150;SDS011;25866;52.420;10.640;2022-07-05T07:14:00;4.72;;;1.35;;
40150;SDS011;25866;52.420;10.640;2022-07-05T07:16:26;2.58;;;1.38;;
40150;SDS011;25866;52.420;10.640;2022-07-05T07:18:52;4.85;;;1.33;;
40150;SDS011;25866;52.420;10.640;2022-07-05T07:21:17;8.32;;;1.50;;
40150;SDS011;25866;52.420;10.640;2022-07-05T07:23:43;4.13;;;1.50;;
40150;SDS011;25866;52.420;10.640;2022-07-05T07:26:08;2.88;;;1.35;;
40150;SDS011;25866;52.420;10.640;2022-07-05T07:28:34;4.55;;;1.00;;
40150;SDS011;25866;52.420;10.640;2022-07-05T07:31:00;3.60;;;1.60;;
40150;SDS011;25866;52.420;10.640;2022-07-05T07:33:25;2.17;;;1.30;;
40150;SDS011;25866;52.420;10.640;2022-07-05T07:35:51;7.43;;;1.65;;
40150;SDS011;25866;52.420;10.640;2022-07-05T07:38:17;4.07;;;1.50;;
40150;SDS011;25866;52.420;10.640;2022-07-05T07:40:43;2.85;;;1.25;;
40150;SDS011;25866;52.420;10.640;2022-07-05T07:43:08;2.83;;;1.25;;
40150;SDS011;25866;52.420;10.640;2022-07-05T07:45:34;3.85;;;1.27;;
40150;SDS011;25866;52.420;10.640;2022-07-05T07:48:00;2.65;;;1.20;;
40150;SDS011;25866;52.420;10.640;2022-07-05T07:50:25;3.15;;;1.08;;
40150;SDS011;25866;52.420;10.640;2022-07-05T07:52:51;1.63;;;1.02;;
40150;SDS011;25866;52.420;10.640;2022-07-05T07:55:17;5.25;;;1.50;;
40150;SDS011;25866;52.420;10.640;2022-07-05T07:57:42;3.97;;;1.33;;
40150;SDS011;25866;52.420;10.640;2022-07-05T08:00:08;2.95;;;1.08;;
40150;SDS011;25866;52.420;10.640;2022-07-05T08:02:34;2.95;;;1.30;;
40150;SDS011;25866;52.420;10.640;2022-07-05T08:04:59;4.18;;;1.40;;
40150;SDS011;25866;52.420;10.640;2022-07-05T08:07:26;1.70;;;1.08;;
40150;SDS011;25866;52.420;10.640;2022-07-05T08:09:52;3.63;;;1.02;;
40150;SDS011;25866;52.420;10.640;2022-07-05T08:12:18;3.60;;;1.40;;
40150;SDS011;25866;52.420;10.640;2022-07-05T08:14:47;2.33;;;1.38;;
40150;SDS011;25866;52.420;10.640;2022-07-05T08:17:12;4.63;;;1.30;;
40150;SDS011;25866;52.420;10.640;2022-07-05T08:19:38;2.95;;;1.10;;
40150;SDS011;25866;52.420;10.640;2022-07-05T08:22:22;3.50;;;1.30;;
40150;SDS011;25866;52.420;10.640;2022-07-05T08:24:48;1.98;;;0.93;;
40150;SDS011;25866;52.420;10.640;2022-07-05T08:27:14;2.35;;;1.27;;
40150;SDS011;25866;52.420;10.640;2022-07-05T08:29:41;3.97;;;1.20;;
40150;SDS011;25866;52.420;10.640;2022-07-05T08:32:07;4.10;;;1.30;;
40150;SDS011;25866;52.420;10.640;2022-07-05T08:34:34;3.38;;;1.35;;
40150;SDS011;25866;52.420;10.640;2022-07-05T08:37:00;4.45;;;1.10;;
40150;SDS011;25866;52.420;10.640;2022-07-05T08:39:26;7.38;;;1.48;;
40150;SDS011;25866;52.420;10.640;2022-07-05T08:41:53;3.90;;;1.08;;
40150;SDS011;25866;52.420;10.640;2022-07-05T08:44:23;4.13;;;1.30;;
40150;SDS011;25866;52.420;10.640;2022-07-05T08:46:51;4.78;;;1.20;;
40150;SDS011;25866;52.420;10.640;2022-07-05T08:49:25;1.73;;;0.82;;
40150;SDS011;25866;52.420;10.640;2022-07-05T08:51:52;4.05;;;1.13;;
40150;SDS011;25866;52.420;10.640;2022-07-05T08:54:20;2.38;;;0.90;;
40150;SDS011;25866;52.420;10.640;2022-07-05T08:56:47;5.68;;;1.10;;
40150;SDS011;25866;52.420;10.640;2022-07-05T08:59:13;3.42;;;0.90;;
40150;SDS011;25866;52.420;10.640;2022-07-05T09:01:39;3.03;;;1.08;;
40150;SDS011;25866;52.420;10.640;2022-07-05T09:04:07;3.58;;;0.80;;
40150;SDS011;25866;52.420;10.640;2022-07-05T09:06:35;1.83;;;0.93;;
40150;SDS011;25866;52.420;10.640;2022-07-05T09:09:04;2.97;;;0.98;;
40150;SDS011;25866;52.420;10.640;2022-07-05T09:11:32;4.85;;;1.13;;
40150;SDS011;25866;52.420;10.640;2022-07-05T09:14:04;2.47;;;1.05;;
40150;SDS011;25866;52.420;10.640;2022-07-05T09:16:32;3.03;;;0.98;;
40150;SDS011;25866;52.420;10.640;2022-07-05T09:19:06;2.50;;;0.90;;
40150;SDS011;25866;52.420;10.640;2022-07-05T09:21:33;3.00;;;1.10;;
40150;SDS011;25866;52.420;10.640;2022-07-05T09:24:00;2.00;;;1.08;;
40150;SDS011;25866;52.420;10.640;2022-07-05T09:26:34;5.07;;;0.80;;
40150;SDS011;25866;52.420;10.640;2022-07-05T09:29:05;3.63;;;0.90;;
40150;SDS011;25866;52.420;10.640;2022-07-05T09:31:37;1.38;;;0.68;;
40150;SDS011;25866;52.420;10.640;2022-07-05T09:34:21;1.00;;;0.70;;
40150;SDS011;25866;52.420;10.640;2022-07-05T09:36:55;1.23;;;0.80;;
40150;SDS011;25866;52.420;10.640;2022-07-05T09:44:54;1.58;;;0.70;;
40150;SDS011;25866;52.420;10.640;2022-07-05T09:47:23;1.33;;;0.88;;
40150;SDS011;25866;52.420;10.640;2022-07-05T09:49:53;2.85;;;0.80;;
40150;SDS011;25866;52.420;10.640;2022-07-05T09:57:32;4.13;;;0.60;;
40150;SDS011;25866;52.420;10.640;2022-07-05T10:05:27;1.20;;;0.70;;
40150;SDS011;25866;52.420;10.640;2022-07-05T10:07:55;8.63;;;1.67;;
40150;SDS011;25866;52.420;10.640;2022-07-05T10:10:23;0.70;;;0.70;;
40150;SDS011;25866;52.420;10.640;2022-07-05T10:12:53;3.28;;;1.30;;
40150;SDS011;25866;52.420;10.640;2022-07-05T10:15:22;2.80;;;0.60;;
40150;SDS011;25866;52.420;10.640;2022-07-05T10:18:03;3.05;;;0.80;;
40150;SDS011;25866;52.420;10.640;2022-07-05T10:23:06;3.88;;;1.02;;
40150;SDS011;25866;52.420;10.640;2022-07-05T10:25:40;1.20;;;0.80;;
40150;SDS011;25866;52.420;10.640;2022-07-05T10:28:08;2.15;;;0.80;;
40150;SDS011;25866;52.420;10.640;2022-07-05T10:30:35;3.67;;;0.80;;
40150;SDS011;25866;52.420;10.640;2022-07-05T10:33:01;3.58;;;1.00;;
40150;SDS011;25866;52.420;10.640;2022-07-05T10:35:28;2.28;;;0.88;;
40150;SDS011;25866;52.420;10.640;2022-07-05T10:37:54;3.28;;;0.90;;
40150;SDS011;25866;52.420;10.640;2022-07-05T10:40:21;3.10;;;1.10;;
40150;SDS011;25866;52.420;10.640;2022-07-05T10:42:50;7.05;;;1.65;;
40150;SDS011;25866;52.420;10.640;2022-07-05T10:45:30;2.95;;;1.05;;
40150;SDS011;25866;52.420;10.640;2022-07-05T10:48:18;1.15;;;0.70;;
40150;SDS011;25866;52.420;10.640;2022-07-05T10:50:55;3.67;;;0.93;;
40150;SDS011;25866;52.420;10.640;2022-07-05T10:53:28;13.70;;;2.63;;
40150;SDS011;25866;52.420;10.640;2022-07-05T10:56:14;2.03;;;1.00;;
40150;SDS011;25866;52.420;10.640;2022-07-05T10:58:40;15.60;;;1.67;;
40150;SDS011;25866;52.420;10.640;2022-07-05T11:03:41;6.35;;;0.90;;
40150;SDS011;25866;52.420;10.640;2022-07-05T11:06:18;3.40;;;0.93;;
40150;SDS011;25866;52.420;10.640;2022-07-05T11:14:01;1.17;;;0.70;;
40150;SDS011;25866;52.420;10.640;2022-07-05T11:22:27;1.38;;;0.85;;
40150;SDS011;25866;52.420;10.640;2022-07-05T11:24:53;2.22;;;0.90;;
40150;SDS011;25866;52.420;10.640;2022-07-05T11:27:20;1.08;;;0.65;;
40150;SDS011;25866;52.420;10.640;2022-07-05T11:29:46;1.15;;;0.60;;
40150;SDS011;25866;52.420;10.640;2022-07-05T11:34:43;3.13;;;0.70;;
40150;SDS011;25866;52.420;10.640;2022-07-05T11:42:30;2.60;;;0.60;;
40150;SDS011;25866;52.420;10.640;2022-07-05T11:44:58;1.02;;;0.60;;
40150;SDS011;25866;52.420;10.640;2022-07-05T11:47:24;0.55;;;0.52;;
40150;SDS011;25866;52.420;10.640;2022-07-05T11:49:55;0.75;;;0.60;;
40150;SDS011;25866;52.420;10.640;2022-07-05T11:52:25;1.05;;;0.82;;
40150;SDS011;25866;52.420;10.640;2022-07-05T11:54:59;4.50;;;0.77;;
40150;SDS011;25866;52.420;10.640;2022-07-05T11:57:26;1.83;;;0.60;;
40150;SDS011;25866;52.420;10.640;2022-07-05T11:59:53;5.18;;;0.80;;
40150;SDS011;25866;52.420;10.640;2022-07-05T12:02:23;2.00;;;1.00;;
40150;SDS011;25866;52.420;10.640;2022-07-05T12:04:49;1.25;;;0.70;;
40150;SDS011;25866;52.420;10.640;2022-07-05T12:09:51;2.47;;;0.70;;
40150;SDS011;25866;52.420;10.640;2022-07-05T12:12:35;4.47;;;1.27;;
40150;SDS011;25866;52.420;10.640;2022-07-05T12:15:11;2.58;;;0.70;;
40150;SDS011;25866;52.420;10.640;2022-07-05T12:17:44;1.98;;;0.60;;
40150;SDS011;25866;52.420;10.640;2022-07-05T12:20:12;1.80;;;0.70;;
40150;SDS011;25866;52.420;10.640;2022-07-05T12:22:40;4.30;;;0.90;;
40150;SDS011;25866;52.420;10.640;2022-07-05T12:25:16;3.97;;;0.50;;
40150;SDS011;25866;52.420;10.640;2022-07-05T12:27:48;3.28;;;0.60;;
40150;SDS011;25866;52.420;10.640;2022-07-05T12:30:16;1.88;;;0.60;;
40150;SDS011;25866;52.420;10.640;2022-07-05T12:35:26;3.03;;;0.43;;
40150;SDS011;25866;52.420;10.640;2022-07-05T12:38:01;2.15;;;0.63;;
40150;SDS011;25866;52.420;10.640;2022-07-05T12:40:31;0.70;;;0.45;;
40150;SDS011;25866;52.420;10.640;2022-07-05T12:43:02;2.00;;;0.60;;
40150;SDS011;25866;52.420;10.640;2022-07-05T12:45:35;2.42;;;0.50;;
40150;SDS011;25866;52.420;10.640;2022-07-05T12:48:03;2.90;;;0.60;;
40150;SDS011;25866;52.420;10.640;2022-07-05T12:50:43;3.15;;;0.50;;
40150;SDS011;25866;52.420;10.640;2022-07-05T12:53:17;3.38;;;0.60;;
40150;SDS011;25866;52.420;10.640;2022-07-05T12:56:06;0.88;;;0.50;;
40150;SDS011;25866;52.420;10.640;2022-07-05T12:59:03;3.13;;;0.40;;
40150;SDS011;25866;52.420;10.640;2022-07-05T13:01:40;0.98;;;0.50;;
40150;SDS011;25866;52.420;10.640;2022-07-05T13:04:16;1.67;;;0.50;;
40150;SDS011;25866;52.420;10.640;2022-07-05T13:06:46;2.55;;;0.60;;
40150;SDS011;25866;52.420;10.640;2022-07-05T13:09:37;1.55;;;0.50;;
40150;SDS011;25866;52.420;10.640;2022-07-05T13:12:17;1.52;;;0.43;;
40150;SDS011;25866;52.420;10.640;2022-07-05T13:14:52;1.73;;;0.70;;
40150;SDS011;25866;52.420;10.640;2022-07-05T13:17:19;2.88;;;0.45;;
40150;SDS011;25866;52.420;10.640;2022-07-05T13:19:46;2.95;;;0.50;;
40150;SDS011;25866;52.420;10.640;2022-07-05T13:22:13;2.53;;;0.63;;
40150;SDS011;25866;52.420;10.640;2022-07-05T13:24:40;0.68;;;0.50;;
40150;SDS011;25866;52.420;10.640;2022-07-05T13:27:07;0.30;;;0.30;;
40150;SDS011;25866;52.420;10.640;2022-07-05T13:29:33;1.27;;;0.50;;
40150;SDS011;25866;52.420;10.640;2022-07-05T13:31:59;4.65;;;0.70;;
40150;SDS011;25866;52.420;10.640;2022-07-05T13:34:25;0.40;;;0.30;;
40150;SDS011;25866;52.420;10.640;2022-07-05T13:36:54;1.77;;;0.40;;
40150;SDS011;25866;52.420;10.640;2022-07-05T13:39:22;1.23;;;0.45;;
40150;SDS011;25866;52.420;10.640;2022-07-05T13:41:49;0.95;;;0.50;;
40150;SDS011;25866;52.420;10.640;2022-07-05T13:44:16;3.92;;;0.43;;
40150;SDS011;25866;52.420;10.640;2022-07-05T13:46:43;2.72;;;0.50;;
40150;SDS011;25866;52.420;10.640;2022-07-05T13:49:09;1.20;;;0.63;;
40150;SDS011;25866;52.420;10.640;2022-07-05T13:51:35;1.85;;;0.57;;
40150;SDS011;25866;52.420;10.640;2022-07-05T13:54:00;1.40;;;0.52;;
40150;SDS011;25866;52.420;10.640;2022-07-05T13:56:26;5.68;;;0.73;;
40150;SDS011;25866;52.420;10.640;2022-07-05T13:58:52;3.95;;;0.70;;
40150;SDS011;25866;52.420;10.640;2022-07-05T14:01:19;2.53;;;0.63;;
40150;SDS011;25866;52.420;10.640;2022-07-05T14:03:51;2.80;;;0.52;;
40150;SDS011;25866;52.420;10.640;2022-07-05T14:06:22;1.95;;;0.50;;
40150;SDS011;25866;52.420;10.640;2022-07-05T14:08:48;2.42;;;0.60;;
40150;SDS011;25866;52.420;10.640;2022-07-05T14:11:14;0.82;;;0.40;;
40150;SDS011;25866;52.420;10.640;2022-07-05T14:13:39;2.88;;;0.47;;
40150;SDS011;25866;52.420;10.640;2022-07-05T14:16:06;1.08;;;0.60;;
40150;SDS011;25866;52.420;10.640;2022-07-05T14:18:32;2.92;;;0.50;;
40150;SDS011;25866;52.420;10.640;2022-07-05T14:20:58;2.05;;;0.30;;
40150;SDS011;25866;52.420;10.640;2022-07-05T14:23:25;1.15;;;0.40;;
40150;SDS011;25866;52.420;10.640;2022-07-05T14:25:51;0.60;;;0.40;;
40150;SDS011;25866;52.420;10.640;2022-07-05T14:28:16;4.20;;;0.45;;
40150;SDS011;25866;52.420;10.640;2022-07-05T14:30:43;1.33;;;0.50;;
40150;SDS011;25866;52.420;10.640;2022-07-05T14:33:11;3.83;;;0.50;;
40150;SDS011;25866;52.420;10.640;2022-07-05T14:35:37;1.55;;;0.40;;
40150;SDS011;25866;52.420;10.640;2022-07-05T14:38:03;0.95;;;0.60;;
40150;SDS011;25866;52.420;10.640;2022-07-05T14:40:29;1.00;;;0.50;;
40150;SDS011;25866;52.420;10.640;2022-07-05T14:42:56;0.80;;;0.50;;
40150;SDS011;25866;52.420;10.640;2022-07-05T14:45:25;1.92;;;0.52;;
40150;SDS011;25866;52.420;10.640;2022-07-05T14:47:51;3.88;;;0.50;;
40150;SDS011;25866;52.420;10.640;2022-07-05T14:50:17;0.90;;;0.52;;
40150;SDS011;25866;52.420;10.640;2022-07-05T14:52:45;1.02;;;0.40;;
40150;SDS011;25866;52.420;10.640;2022-07-05T14:55:11;0.93;;;0.40;;
40150;SDS011;25866;52.420;10.640;2022-07-05T14:57:37;3.90;;;0.70;;
40150;SDS011;25866;52.420;10.640;2022-07-05T15:00:05;0.63;;;0.47;;
40150;SDS011;25866;52.420;10.640;2022-07-05T15:02:38;0.95;;;0.40;;
40150;SDS011;25866;52.420;10.640;2022-07-05T15:05:04;0.95;;;0.40;;
40150;SDS011;25866;52.420;10.640;2022-07-05T15:07:30;2.78;;;0.40;;
40150;SDS011;25866;52.420;10.640;2022-07-05T15:09:56;0.60;;;0.50;;
40150;SDS011;25866;52.420;10.640;2022-07-05T15:12:22;1.45;;;0.57;;
40150;SDS011;25866;52.420;10.640;2022-07-05T15:14:48;1.65;;;0.47;;
40150;SDS011;25866;52.420;10.640;2022-07-05T15:17:14;0.80;;;0.50;;
40150;SDS011;25866;52.420;10.640;2022-07-05T15:19:39;1.77;;;0.60;;
40150;SDS011;25866;52.420;10.640;2022-07-05T15:22:06;1.25;;;0.50;;
40150;SDS011;25866;52.420;10.640;2022-07-05T15:24:32;2.95;;;0.57;;
40150;SDS011;25866;52.420;10.640;2022-07-05T15:26:58;1.90;;;0.50;;